Time;durP1;ratioP1;P1;durP2;ratioP2;P2;SDS_P1;SDS_P2;PMS_P1;PMS_P2;Temp;Humidity;BMP_temperature;BMP_pressure;BME280_temperature;BME280_humidity;BME280_pressure;Samples;Min_cycle;Max_cycle;Signal;HPM_P1;HPM_P2
2023/06/01 00:01:37;;;;;;;7.63;2.50;;;;;;;17.13;58.59;99306.44;6239397;23;20018;-80
2023/06/01 00:04:05;;;;;;;6.20;2.90;;;;;;;16.95;58.85;99307.91;6237669;23;20008;-80
2023/06/01 00:06:31;;;;;;;4.57;3.03;;;;;;;16.88;59.21;99314.72;6240893;22;20412;-81
2023/06/01 00:08:57;;;;;;;5.43;3.13;;;;;;;16.86;58.97;99316.88;6211575;23;20465;-80
2023/06/01 00:11:23;;;;;;;5.70;3.17;;;;;;;16.88;58.96;99322.78;6236216;22;20024;-80
2023/06/01 00:13:49;;;;;;;5.38;3.33;;;;;;;16.88;59.09;99312.00;6236741;22;20011;-81
2023/06/01 00:16:16;;;;;;;6.00;3.17;;;;;;;16.87;58.80;99311.19;6234666;23;20032;-80
2023/06/01 00:18:41;;;;;;;3.97;2.90;;;;;;;16.80;59.32;99309.88;6237489;22;20083;-81
2023/06/01 00:21:07;;;;;;;5.25;3.00;;;;;;;16.78;59.52;99298.56;6236262;22;20106;-80
2023/06/01 00:23:33;;;;;;;5.28;2.78;;;;;;;16.72;59.64;99310.47;6235746;23;20436;-80
2023/06/01 00:26:00;;;;;;;7.53;3.28;;;;;;;16.73;59.42;99309.41;6237823;23;20723;-81
2023/06/01 00:28:25;;;;;;;3.50;2.97;;;;;;;16.78;59.02;99303.94;6235008;23;20014;-81
2023/06/01 00:30:52;;;;;;;8.68;3.40;;;;;;;16.69;59.28;99298.34;6240296;23;20087;-81
2023/06/01 00:33:18;;;;;;;10.18;3.63;;;;;;;16.47;60.17;99304.06;6214348;23;20014;-81
2023/06/01 00:35:43;;;;;;;5.18;3.30;;;;;;;16.61;59.67;99303.50;6215769;23;20016;-81
2023/06/01 00:38:09;;;;;;;4.38;3.03;;;;;;;16.62;60.09;99308.59;6212789;23;20015;-81
2023/06/01 00:40:34;;;;;;;8.10;3.38;;;;;;;16.55;59.89;99300.03;6239211;23;20482;-81
2023/06/01 00:43:00;;;;;;;5.72;2.90;;;;;;;16.48;60.27;99296.78;6212762;23;20012;-80
2023/06/01 00:45:26;;;;;;;8.88;3.65;;;;;;;16.47;59.95;99295.97;6214797;23;20361;-81
2023/06/01 00:47:52;;;;;;;5.55;2.90;;;;;;;16.54;60.24;99295.72;6240335;23;20432;-81
2023/06/01 00:50:18;;;;;;;6.63;3.00;;;;;;;16.46;60.55;99296.25;6215518;23;20014;-81
2023/06/01 00:52:44;;;;;;;8.30;3.00;;;;;;;16.39;60.26;99283.09;6241590;23;20012;-80
2023/06/01 00:55:10;;;;;;;5.10;3.08;;;;;;;16.44;60.56;99283.06;6242142;22;20432;-81
2023/06/01 00:57:37;;;;;;;7.00;3.00;;;;;;;16.33;61.02;99286.06;6240857;23;20096;-80
2023/06/01 01:00:10;;;;;;;9.27;4.50;;;;;;;16.36;60.84;99275.53;6240222;23;20004;-81
2023/06/01 01:02:37;;;;;;;6.15;3.65;;;;;;;16.34;60.76;99283.09;6215639;23;20047;-81
2023/06/01 01:05:10;;;;;;;5.35;2.90;;;;;;;16.36;60.75;99277.41;6243331;22;20014;-81
2023/06/01 01:07:50;;;;;;;5.13;3.03;;;;;;;16.24;60.77;99272.38;6240566;22;20004;-80
2023/06/01 01:11:00;;;;;;;6.78;3.33;;;;;;;16.23;60.58;99278.00;6242376;22;20020;-80
2023/06/01 01:13:34;;;;;;;8.82;3.55;;;;;;;16.33;60.63;99278.00;6123446;23;20112;-80
2023/06/01 01:16:07;;;;;;;7.68;3.58;;;;;;;16.27;60.58;99263.72;6148136;23;20009;-80
2023/06/01 01:18:38;;;;;;;8.35;3.90;;;;;;;16.31;60.80;99277.47;6216939;22;20007;-81
2023/06/01 01:21:21;;;;;;;8.90;3.78;;;;;;;16.22;60.43;99269.16;6237455;23;20409;-80
2023/06/01 01:24:27;;;;;;;6.20;3.13;;;;;;;16.14;61.12;99277.75;6219358;23;20008;-80
2023/06/01 01:26:53;;;;;;;7.60;3.22;;;;;;;16.14;60.82;99282.38;6239994;23;20455;-80
2023/06/01 01:29:23;;;;;;;6.13;3.70;;;;;;;16.19;60.97;99288.53;6242068;22;19996;-81
2023/06/01 01:31:49;;;;;;;4.45;2.83;;;;;;;16.11;61.05;99288.28;6215050;23;20004;-80
2023/06/01 01:34:17;;;;;;;6.10;3.65;;;;;;;15.98;61.10;99286.97;6242416;22;20011;-80
2023/06/01 01:36:43;;;;;;;5.95;3.85;;;;;;;15.90;61.61;99278.66;6190360;23;20125;-80
2023/06/01 01:39:08;;;;;;;7.55;3.78;;;;;;;15.93;61.23;99288.84;6241356;22;20011;-80
2023/06/01 01:41:33;;;;;;;6.13;3.08;;;;;;;15.52;62.24;99280.84;6215722;23;20011;-80
2023/06/01 01:43:59;;;;;;;8.57;4.57;;;;;;;14.95;64.92;99296.34;6242132;22;20428;-81
2023/06/01 01:46:30;;;;;;;6.35;3.90;;;;;;;14.68;65.50;99290.34;6239390;23;20464;-80
2023/06/01 01:49:11;;;;;;;5.35;3.25;;;;;;;15.33;62.42;99279.72;6239185;23;20032;-80
2023/06/01 01:51:56;;;;;;;5.97;3.78;;;;;;;15.11;63.68;99287.25;6240113;23;20004;-80
2023/06/01 01:54:23;;;;;;;6.05;4.15;;;;;;;14.86;64.48;99287.19;6242464;22;20444;-80
2023/06/01 01:56:50;;;;;;;10.40;5.03;;;;;;;13.66;70.85;99293.56;6240889;23;20011;-80
2023/06/01 01:59:17;;;;;;;10.65;5.47;;;;;;;13.52;71.39;99287.00;6240172;23;20012;-80
2023/06/01 02:01:44;;;;;;;11.27;4.30;;;;;;;13.72;70.10;99283.66;6239057;23;20004;-80
2023/06/01 02:04:10;;;;;;;8.90;4.45;;;;;;;13.86;69.12;99280.28;6214937;23;20479;-80
2023/06/01 02:06:36;;;;;;;10.68;5.43;;;;;;;13.22;73.76;99286.75;6239834;22;20007;-80
2023/06/01 02:09:06;;;;;;;6.18;4.50;;;;;;;13.69;69.75;99278.81;6242621;22;20386;-80
2023/06/01 02:11:32;;;;;;;6.65;4.00;;;;;;;14.51;65.54;99255.66;6240885;22;20008;-80
2023/06/01 02:13:57;;;;;;;8.98;5.40;;;;;;;14.48;67.21;99272.28;6213593;23;20446;-80
2023/06/01 02:16:22;;;;;;;6.20;4.22;;;;;;;14.79;64.92;99276.69;6213715;23;20091;-79
2023/06/01 02:18:48;;;;;;;15.27;5.78;;;;;;;14.13;68.53;99269.44;6236955;23;20016;-79
2023/06/01 02:21:13;;;;;;;10.07;5.30;;;;;;;13.44;71.20;99274.88;6238375;23;20015;-79
2023/06/01 02:23:39;;;;;;;6.93;3.88;;;;;;;14.27;66.42;99265.19;6209141;23;20004;-79
2023/06/01 02:26:05;;;;;;;6.18;4.10;;;;;;;14.51;65.67;99260.22;6212060;23;20039;-80
2023/06/01 02:28:31;;;;;;;11.82;4.05;;;;;;;14.72;64.30;99257.31;6238718;23;20015;-79
2023/06/01 02:30:56;;;;;;;3.70;3.38;;;;;;;14.84;64.35;99259.78;6240338;22;20004;-80
2023/06/01 02:33:24;;;;;;;6.47;4.10;;;;;;;13.94;67.81;99262.88;6240382;23;20015;-80
2023/06/01 02:35:50;;;;;;;8.38;4.57;;;;;;;13.28;70.68;99253.56;6239195;23;20512;-80
2023/06/01 02:38:16;;;;;;;10.48;6.35;;;;;;;13.09;72.91;99266.53;6238269;23;20036;-80
2023/06/01 02:40:41;;;;;;;12.52;5.28;;;;;;;13.74;69.92;99260.09;6213664;23;20124;-81
2023/06/01 02:43:06;;;;;;;10.52;4.75;;;;;;;14.54;66.04;99259.69;6240302;23;20004;-80
2023/06/01 02:45:32;;;;;;;4.38;3.97;;;;;;;14.83;64.39;99260.84;6241296;23;20008;-81
2023/06/01 02:47:57;;;;;;;7.10;4.15;;;;;;;14.81;64.21;99258.41;6214568;23;20012;-80
2023/06/01 02:50:22;;;;;;;5.22;4.03;;;;;;;15.02;63.79;99259.28;6237905;23;20004;-80
2023/06/01 02:52:48;;;;;;;7.85;5.10;;;;;;;14.43;65.99;99263.41;6240826;22;20028;-81
2023/06/01 02:55:13;;;;;;;10.85;4.10;;;;;;;14.69;64.24;99271.28;6214771;23;20445;-81
2023/06/01 02:57:38;;;;;;;8.48;4.90;;;;;;;13.78;68.55;99258.50;6241887;22;20004;-81
2023/06/01 03:00:15;;;;;;;11.27;6.05;;;;;;;12.98;70.88;99262.09;6242133;22;20016;-81
2023/06/01 03:02:41;;;;;;;10.30;5.00;;;;;;;12.59;72.81;99269.47;6240687;23;20004;-81
2023/06/01 03:05:07;;;;;;;5.43;3.38;;;;;;;13.80;67.67;99264.41;6214856;23;20015;-81
2023/06/01 03:07:33;;;;;;;5.75;3.83;;;;;;;14.28;65.63;99262.22;6238993;22;20016;-81
2023/06/01 03:09:58;;;;;;;8.50;3.78;;;;;;;13.98;66.22;99262.09;6238646;23;20004;-81
2023/06/01 03:12:23;;;;;;;13.02;4.80;;;;;;;13.89;66.32;99257.50;6239573;22;20094;-81
2023/06/01 03:14:49;;;;;;;5.78;3.75;;;;;;;14.02;66.03;99255.13;6211741;23;20015;-81
2023/06/01 03:17:14;;;;;;;9.88;4.05;;;;;;;14.02;65.77;99262.41;6207703;23;20499;-81
2023/06/01 03:19:40;;;;;;;4.57;3.60;;;;;;;14.31;65.28;99274.38;6231769;23;20008;-81
2023/06/01 03:22:05;;;;;;;10.38;3.80;;;;;;;14.03;65.81;99266.69;6231183;23;20012;-81
2023/06/01 03:24:32;;;;;;;7.50;3.90;;;;;;;14.44;64.80;99273.88;6234204;23;20066;-81
2023/06/01 03:26:57;;;;;;;9.45;6.00;;;;;;;13.61;67.82;99271.25;6234516;23;20095;-81
2023/06/01 03:29:23;;;;;;;10.35;7.10;;;;;;;12.89;71.04;99277.00;6235220;23;20032;-81
2023/06/01 03:31:48;;;;;;;15.95;7.13;;;;;;;12.41;73.09;99274.31;6234685;23;20380;-80
2023/06/01 03:34:14;;;;;;;7.18;4.78;;;;;;;12.82;70.45;99271.84;6211936;23;20023;-81
2023/06/01 03:36:39;;;;;;;8.10;4.68;;;;;;;12.91;70.55;99274.88;6235262;23;20085;-80
2023/06/01 03:39:08;;;;;;;7.05;4.70;;;;;;;13.76;67.25;99282.88;6237319;22;20085;-80
2023/06/01 03:41:36;;;;;;;10.13;5.32;;;;;;;13.48;67.69;99281.34;6235919;23;20008;-81
2023/06/01 03:44:02;;;;;;;6.43;5.10;;;;;;;13.48;68.29;99289.38;6241437;22;20411;-80
2023/06/01 03:46:27;;;;;;;15.65;7.70;;;;;;;13.45;69.32;99279.16;6237929;23;20011;-80
2023/06/01 03:48:53;;;;;;;13.07;7.95;;;;;;;13.01;70.36;99268.84;6212957;23;20008;-80
2023/06/01 03:51:18;;;;;;;18.60;11.35;;;;;;;12.55;74.25;99275.59;6211932;23;20023;-80
2023/06/01 03:53:43;;;;;;;17.40;11.02;;;;;;;11.74;77.85;99265.69;6187285;23;20040;-80
2023/06/01 03:56:09;;;;;;;23.05;11.98;;;;;;;11.20;80.57;99272.56;6239699;23;20008;-79
2023/06/01 03:58:34;;;;;;;20.27;12.80;;;;;;;10.71;83.81;99274.09;6238795;22;20058;-81
2023/06/01 04:01:00;;;;;;;24.80;13.07;;;;;;;10.97;83.40;99262.81;6235233;23;20083;-80
2023/06/01 04:03:26;;;;;;;25.63;14.98;;;;;;;10.76;83.34;99265.38;6211532;23;20012;-80
2023/06/01 04:05:58;;;;;;;29.42;14.75;;;;;;;11.15;81.42;99264.47;6235039;23;20019;-80
2023/06/01 04:08:24;;;;;;;31.55;16.65;;;;;;;10.93;82.04;99263.53;6236406;23;20015;-79
2023/06/01 04:10:50;;;;;;;29.10;18.13;;;;;;;11.38;80.61;99268.84;6232668;22;20004;-79
2023/06/01 04:13:15;;;;;;;56.97;19.90;;;;;;;11.54;80.00;99262.69;6233595;23;20321;-79
2023/06/01 04:15:41;;;;;;;35.05;18.83;;;;;;;10.92;82.14;99272.63;6234883;23;20005;-80
2023/06/01 04:18:06;;;;;;;30.88;16.52;;;;;;;11.92;78.13;99268.91;6233636;23;20012;-79
2023/06/01 04:20:32;;;;;;;40.22;20.30;;;;;;;11.45;80.91;99272.16;6233296;23;20026;-80
2023/06/01 04:22:58;;;;;;;29.10;17.20;;;;;;;11.60;80.61;99281.22;6238455;22;20387;-80
2023/06/01 04:25:24;;;;;;;45.75;23.42;;;;;;;11.55;80.03;99275.00;6236589;22;20130;-79
2023/06/01 04:27:51;;;;;;;40.85;21.58;;;;;;;11.13;82.46;99282.59;6208422;23;20016;-80
2023/06/01 04:30:17;;;;;;;41.95;22.27;;;;;;;10.76;85.55;99276.88;6213021;23;20008;-80
2023/06/01 04:32:47;;;;;;;51.33;26.25;;;;;;;10.25;87.13;99260.91;6235647;23;20071;-79
2023/06/01 04:35:14;;;;;;;45.25;22.77;;;;;;;10.80;84.69;99277.19;6212497;23;20012;-80
2023/06/01 04:37:41;;;;;;;43.92;23.90;;;;;;;11.10;83.79;99269.72;6232334;23;20008;-80
2023/06/01 04:40:10;;;;;;;40.35;20.50;;;;;;;11.05;83.84;99278.44;6238167;23;20313;-79
2023/06/01 04:42:38;;;;;;;39.67;22.30;;;;;;;11.30;82.95;99286.09;6236760;22;20011;-80
2023/06/01 04:45:07;;;;;;;50.33;24.67;;;;;;;10.67;86.95;99283.63;6236899;23;20440;-80
2023/06/01 04:47:36;;;;;;;53.20;28.02;;;;;;;10.62;86.88;99283.53;6237659;23;20031;-79
2023/06/01 04:50:03;;;;;;;57.35;27.02;;;;;;;11.32;82.61;99295.50;6237079;23;20008;-81
2023/06/01 04:52:28;;;;;;;59.50;31.42;;;;;;;10.78;85.37;99297.97;6187727;23;20004;-79
2023/06/01 04:54:54;;;;;;;50.40;26.27;;;;;;;10.96;85.93;99290.59;6210786;23;20104;-81
2023/06/01 04:57:19;;;;;;;58.78;29.23;;;;;;;11.24;82.84;99279.03;6187510;23;20015;-80
2023/06/01 04:59:45;;;;;;;64.85;31.15;;;;;;;10.81;84.66;99286.81;6234120;22;20016;-80
2023/06/01 05:02:10;;;;;;;58.13;31.10;;;;;;;10.98;85.24;99291.16;6236710;22;20079;-80
2023/06/01 05:04:36;;;;;;;48.47;24.88;;;;;;;11.01;85.49;99290.66;6238357;23;20083;-80
2023/06/01 05:07:01;;;;;;;56.13;31.33;;;;;;;11.15;84.72;99283.16;6185747;23;20062;-79
2023/06/01 05:09:26;;;;;;;54.33;29.55;;;;;;;10.51;86.33;99279.84;6212776;23;20687;-80
2023/06/01 05:11:52;;;;;;;47.30;26.55;;;;;;;11.10;85.20;99291.06;6242524;22;20012;-80
2023/06/01 05:14:17;;;;;;;60.17;30.15;;;;;;;11.41;83.01;99285.19;6240297;23;20057;-79
2023/06/01 05:16:43;;;;;;;43.47;26.08;;;;;;;11.32;84.15;99283.97;6216890;23;20008;-80
2023/06/01 05:19:08;;;;;;;64.10;32.03;;;;;;;11.58;81.90;99280.66;6240801;22;20014;-80
2023/06/01 05:21:33;;;;;;;53.28;29.63;;;;;;;11.72;81.63;99292.69;6186888;23;20441;-79
2023/06/01 05:23:59;;;;;;;36.28;20.05;;;;;;;13.08;74.91;99288.22;6216869;23;20004;-80
2023/06/01 05:26:25;;;;;;;41.88;24.23;;;;;;;13.00;75.06;99276.06;6242533;22;20012;-81
2023/06/01 05:28:50;;;;;;;52.22;29.10;;;;;;;11.87;80.58;99274.19;6240423;23;20428;-80
2023/06/01 05:31:16;;;;;;;58.83;31.17;;;;;;;11.82;81.28;99281.31;6240411;23;20004;-81
2023/06/01 05:33:42;;;;;;;59.22;30.70;;;;;;;11.28;83.83;99291.69;6241890;23;20008;-80
2023/06/01 05:36:07;;;;;;;60.13;31.42;;;;;;;11.28;83.17;99278.31;6216426;23;20091;-81
2023/06/01 05:38:32;;;;;;;55.45;30.02;;;;;;;12.08;79.81;99282.50;6242521;22;19996;-81
2023/06/01 05:40:58;;;;;;;48.25;29.30;;;;;;;12.17;79.62;99294.38;6243205;22;20015;-81
2023/06/01 05:43:23;;;;;;;50.45;30.17;;;;;;;11.84;81.53;99282.69;6243828;22;20015;-81
2023/06/01 05:45:49;;;;;;;59.40;32.65;;;;;;;11.81;80.39;99277.84;6191356;23;20459;-81
2023/06/01 05:48:14;;;;;;;58.70;31.92;;;;;;;11.05;82.77;99275.78;6215983;23;20023;-81
2023/06/01 05:50:41;;;;;;;51.28;30.70;;;;;;;11.27;83.40;99286.56;6214523;23;20015;-81
2023/06/01 05:53:08;;;;;;;63.80;32.67;;;;;;;10.80;84.08;99291.34;6213941;23;20360;-81
2023/06/01 05:55:33;;;;;;;62.40;34.13;;;;;;;10.75;84.76;99287.75;6241515;23;20467;-80
2023/06/01 05:57:58;;;;;;;44.25;26.25;;;;;;;11.58;81.49;99295.88;6240931;23;20008;-81
2023/06/01 06:00:24;;;;;;;59.35;34.20;;;;;;;11.49;80.76;99284.78;6215608;23;20071;-80
2023/06/01 06:02:50;;;;;;;60.45;30.10;;;;;;;11.27;82.36;99298.06;6215989;23;20018;-81
2023/06/01 06:05:15;;;;;;;57.35;33.88;;;;;;;10.79;82.41;99291.59;6216514;23;20068;-81
2023/06/01 06:07:41;;;;;;;61.50;33.22;;;;;;;10.43;84.47;99293.56;6243330;22;20598;-81
2023/06/01 06:10:07;;;;;;;62.17;32.47;;;;;;;11.21;82.64;99295.53;6213430;23;20031;-81
2023/06/01 06:12:32;;;;;;;59.38;34.22;;;;;;;11.37;81.30;99304.63;6215847;23;20019;-81
2023/06/01 06:14:57;;;;;;;56.88;32.53;;;;;;;12.36;77.08;99306.41;6241001;22;20538;-82
2023/06/01 06:17:23;;;;;;;54.53;31.77;;;;;;;12.27;76.92;99303.34;6241395;23;20014;-81
2023/06/01 06:19:49;;;;;;;61.35;34.20;;;;;;;11.13;80.56;99293.28;6242709;22;20444;-81
2023/06/01 06:22:15;;;;;;;61.42;33.30;;;;;;;10.69;82.83;99302.06;6240577;23;20043;-81
2023/06/01 06:24:41;;;;;;;58.13;33.20;;;;;;;11.31;80.63;99314.44;6214691;23;20094;-82
2023/06/01 06:27:08;;;;;;;65.18;35.85;;;;;;;10.47;82.88;99300.06;6240997;22;20039;-81
2023/06/01 06:29:33;;;;;;;47.53;27.98;;;;;;;11.19;81.54;99305.66;6239416;23;20038;-81
2023/06/01 06:31:58;;;;;;;63.67;36.47;;;;;;;10.10;84.33;99304.03;6243354;22;20004;-82
2023/06/01 06:34:24;;;;;;;59.35;34.05;;;;;;;11.55;78.92;99307.09;6239276;23;20321;-81
2023/06/01 06:36:49;;;;;;;54.05;30.90;;;;;;;11.83;78.33;99304.34;6241993;22;20421;-81
2023/06/01 06:39:15;;;;;;;60.40;34.03;;;;;;;10.81;81.30;99302.84;6240772;23;20088;-81
2023/06/01 06:41:41;;;;;;;53.88;32.55;;;;;;;11.05;80.75;99301.69;6216485;23;20011;-81
2023/06/01 06:44:07;;;;;;;43.25;26.52;;;;;;;12.34;76.56;99295.16;6216845;23;20011;-81
2023/06/01 06:46:32;;;;;;;52.25;31.63;;;;;;;11.69;77.64;99303.84;6215056;23;20008;-82
2023/06/01 06:48:57;;;;;;;48.60;27.85;;;;;;;11.98;77.32;99308.03;6241047;23;20349;-80
2023/06/01 06:51:23;;;;;;;55.50;34.00;;;;;;;11.28;78.00;99298.88;6243759;22;20440;-81
2023/06/01 06:53:48;;;;;;;49.00;30.45;;;;;;;12.21;77.17;99314.25;6242324;22;20329;-81
2023/06/01 06:56:13;;;;;;;41.20;28.83;;;;;;;13.31;72.26;99310.16;6241557;23;20019;-81
2023/06/01 06:58:39;;;;;;;51.42;31.58;;;;;;;12.41;74.85;99301.09;6240594;23;20011;-80
2023/06/01 07:01:05;;;;;;;41.08;26.67;;;;;;;13.82;70.79;99306.03;6213880;23;20089;-80
2023/06/01 07:03:33;;;;;;;43.80;26.88;;;;;;;14.29;68.68;99303.34;6241334;23;20008;-81
2023/06/01 07:05:59;;;;;;;29.08;19.80;;;;;;;14.35;68.81;99312.25;6242498;22;20004;-82
2023/06/01 07:08:25;;;;;;;25.73;17.40;;;;;;;14.83;67.16;99299.28;6239187;22;20012;-82
2023/06/01 07:10:52;;;;;;;22.70;14.65;;;;;;;15.28;65.29;99301.25;6213510;23;20420;-82
2023/06/01 07:13:17;;;;;;;19.38;13.52;;;;;;;15.37;64.85;99301.53;6241031;23;20011;-80
2023/06/01 07:15:43;;;;;;;20.25;13.20;;;;;;;15.21;65.89;99305.25;6240731;23;20055;-81
2023/06/01 07:18:08;;;;;;;19.65;13.50;;;;;;;14.80;66.87;99307.06;6242049;22;20012;-81
2023/06/01 07:20:33;;;;;;;17.05;11.10;;;;;;;14.86;66.42;99297.94;6213210;23;20109;-80
2023/06/01 07:22:59;;;;;;;17.48;12.18;;;;;;;15.03;66.11;99309.25;6215078;23;20329;-81
2023/06/01 07:25:24;;;;;;;28.67;14.40;;;;;;;14.43;67.84;99309.06;6214638;23;20012;-81
2023/06/01 07:27:50;;;;;;;21.08;12.75;;;;;;;14.26;70.08;99301.19;6214216;23;20120;-81
2023/06/01 07:30:16;;;;;;;26.35;14.80;;;;;;;13.78;70.31;99304.09;6240120;23;20409;-80
2023/06/01 07:32:42;;;;;;;23.00;15.25;;;;;;;13.97;70.21;99297.25;6240648;23;20385;-80
2023/06/01 07:35:09;;;;;;;20.13;12.60;;;;;;;14.42;68.22;99291.31;6240971;23;20012;-80
2023/06/01 07:37:35;;;;;;;22.02;16.83;;;;;;;14.53;67.89;99304.53;6240881;23;20107;-81
2023/06/01 07:40:00;;;;;;;33.22;22.30;;;;;;;13.38;72.27;99291.19;6238445;23;20485;-80
2023/06/01 07:42:25;;;;;;;33.45;22.40;;;;;;;13.68;72.60;99296.78;6240210;23;20375;-80
2023/06/01 07:44:51;;;;;;;29.48;19.98;;;;;;;12.87;72.24;99289.84;6213877;23;20012;-80
2023/06/01 07:47:16;;;;;;;26.83;17.98;;;;;;;14.36;69.37;99290.50;6239241;23;20012;-80
2023/06/01 07:49:42;;;;;;;25.30;18.73;;;;;;;13.46;71.88;99296.88;6238887;23;20004;-82
2023/06/01 07:52:08;;;;;;;31.05;19.48;;;;;;;13.23;72.17;99307.13;6211040;23;20108;-80
2023/06/01 07:54:37;;;;;;;31.52;20.58;;;;;;;12.52;73.25;99282.25;6239993;23;20424;-80
2023/06/01 07:57:06;;;;;;;31.30;21.45;;;;;;;12.89;71.72;99297.66;6240261;23;20062;-80
2023/06/01 07:59:32;;;;;;;24.27;17.55;;;;;;;13.89;70.86;99303.91;6216069;23;20020;-81
2023/06/01 08:01:58;;;;;;;27.15;19.35;;;;;;;13.57;71.08;99284.34;6239264;23;20071;-81
2023/06/01 08:04:24;;;;;;;20.98;15.50;;;;;;;15.07;67.47;99290.75;6215059;23;20008;-81
2023/06/01 08:06:52;;;;;;;19.90;15.63;;;;;;;15.61;64.85;99281.94;6242744;22;20008;-81
2023/06/01 08:09:20;;;;;;;20.25;15.13;;;;;;;15.85;64.07;99279.47;6240922;22;20087;-81
2023/06/01 08:11:45;;;;;;;21.52;16.10;;;;;;;15.53;64.56;99281.66;6216319;23;20016;-81
2023/06/01 08:14:11;;;;;;;20.63;15.27;;;;;;;16.13;62.69;99278.88;6240950;23;20019;-81
2023/06/01 08:16:36;;;;;;;21.05;16.02;;;;;;;16.11;62.98;99274.81;6240593;23;20054;-81
2023/06/01 08:19:03;;;;;;;23.33;17.40;;;;;;;16.08;63.15;99278.88;6239723;23;20449;-80
2023/06/01 08:21:28;;;;;;;25.67;19.40;;;;;;;15.69;64.27;99270.59;6240163;23;20016;-81
2023/06/01 08:23:57;;;;;;;25.60;17.13;;;;;;;16.47;61.92;99279.81;6214281;23;20004;-81
2023/06/01 08:26:23;;;;;;;20.67;15.68;;;;;;;16.57;61.39;99287.09;6214558;23;20429;-80
2023/06/01 08:28:52;;;;;;;25.00;19.42;;;;;;;16.31;62.85;99267.50;6240199;23;20011;-81
2023/06/01 08:31:23;;;;;;;18.55;15.63;;;;;;;16.30;62.30;99271.25;6239742;23;20061;-81
2023/06/01 08:33:50;;;;;;;25.25;18.85;;;;;;;16.18;63.66;99269.97;6240764;23;20004;-81
2023/06/01 08:36:16;;;;;;;26.98;19.13;;;;;;;16.51;61.68;99266.63;6242300;22;20000;-81
2023/06/01 08:38:42;;;;;;;24.48;18.33;;;;;;;15.42;65.05;99264.66;6240817;22;20000;-81
2023/06/01 08:41:12;;;;;;;24.48;19.33;;;;;;;15.96;63.56;99267.59;6240004;23;20019;-81
2023/06/01 08:43:41;;;;;;;24.88;20.52;;;;;;;15.20;65.29;99264.09;6239589;23;20008;-81
2023/06/01 08:46:06;;;;;;;26.33;17.00;;;;;;;16.56;62.04;99269.28;6213197;23;20019;-81
2023/06/01 08:48:32;;;;;;;20.05;15.75;;;;;;;16.70;61.01;99253.31;6214208;23;20349;-82
2023/06/01 08:51:00;;;;;;;22.88;17.40;;;;;;;16.44;61.08;99266.91;6190114;23;20344;-81
2023/06/01 08:53:28;;;;;;;27.45;20.88;;;;;;;16.33;61.21;99254.56;6242288;23;20073;-81
2023/06/01 08:55:56;;;;;;;21.75;18.75;;;;;;;16.10;62.68;99243.56;6242953;23;20008;-81
2023/06/01 08:58:21;;;;;;;20.02;15.88;;;;;;;16.66;61.28;99255.78;6218041;23;20007;-81
2023/06/01 09:00:49;;;;;;;22.20;17.05;;;;;;;15.66;64.47;99259.59;6241016;23;20008;-81
2023/06/01 09:03:14;;;;;;;25.45;17.27;;;;;;;15.19;65.81;99251.75;6244481;22;20328;-81
2023/06/01 09:05:40;;;;;;;19.25;14.23;;;;;;;16.74;61.54;99254.38;6216696;23;20012;-81
2023/06/01 09:08:06;;;;;;;22.80;18.45;;;;;;;16.01;63.20;99229.88;6240486;23;20007;-81
2023/06/01 09:10:31;;;;;;;18.77;14.07;;;;;;;16.84;61.01;99241.63;6241117;23;20004;-81
2023/06/01 09:12:57;;;;;;;18.33;14.60;;;;;;;16.88;61.72;99244.59;6239392;23;20008;-81
2023/06/01 09:15:23;;;;;;;21.42;16.20;;;;;;;17.01;61.48;99239.38;6241459;23;20079;-81
2023/06/01 09:17:50;;;;;;;19.88;14.95;;;;;;;17.39;59.40;99240.44;6216616;23;20008;-81
2023/06/01 09:20:26;;;;;;;15.70;14.00;;;;;;;17.22;60.24;99238.16;6214785;23;20321;-81
2023/06/01 09:22:53;;;;;;;19.92;15.63;;;;;;;16.95;61.58;99239.72;6217312;23;20011;-81
2023/06/01 09:25:27;;;;;;;16.38;13.48;;;;;;;17.54;59.68;99245.72;6242484;23;20054;-81
2023/06/01 09:27:55;;;;;;;20.70;17.27;;;;;;;16.52;63.46;99243.16;6215898;23;20091;-81
2023/06/01 09:30:23;;;;;;;24.70;18.67;;;;;;;16.00;63.55;99240.94;6244179;22;20004;-81
2023/06/01 09:32:52;;;;;;;26.35;18.83;;;;;;;15.21;66.30;99216.53;6215371;23;20012;-81
2023/06/01 09:35:40;;;;;;;23.60;18.85;;;;;;;15.92;65.91;99223.47;6242484;22;20105;-81
2023/06/01 09:38:06;;;;;;;20.63;15.52;;;;;;;17.09;62.66;99230.69;6222636;23;20507;-81
2023/06/01 09:40:32;;;;;;;27.20;19.25;;;;;;;16.13;64.51;99203.44;6243531;22;20004;-81
2023/06/01 09:42:58;;;;;;;31.33;20.38;;;;;;;16.22;66.31;99223.34;6241529;23;20429;-81
2023/06/01 09:45:24;;;;;;;28.65;18.70;;;;;;;16.90;64.57;99224.38;6243995;22;20262;-82
2023/06/01 09:47:50;;;;;;;22.02;16.27;;;;;;;17.21;62.67;99217.63;6242024;23;20437;-80
2023/06/01 09:50:36;;;;;;;24.88;17.58;;;;;;;17.60;60.91;99222.19;6243935;22;20075;-80
2023/06/01 09:53:04;;;;;;;31.42;20.25;;;;;;;15.56;66.92;99220.03;6216673;23;20492;-81
2023/06/01 09:55:30;;;;;;;27.98;19.83;;;;;;;15.53;67.67;99200.94;6243862;22;20396;-81
2023/06/01 09:58:21;;;;;;;24.05;18.98;;;;;;;16.29;66.60;99213.06;6243452;22;20008;-80
2023/06/01 10:00:48;;;;;;;21.70;16.52;;;;;;;16.45;65.68;99206.53;6241737;23;20054;-81
2023/06/01 10:03:15;;;;;;;24.73;18.38;;;;;;;16.03;66.96;99206.16;6241250;23;20511;-80
2023/06/01 10:05:42;;;;;;;26.00;17.58;;;;;;;16.87;66.17;99207.91;6242372;22;20031;-81
2023/06/01 10:08:10;;;;;;;23.10;17.40;;;;;;;16.08;66.51;99197.25;6216440;23;20420;-80
2023/06/01 10:10:36;;;;;;;24.20;15.95;;;;;;;16.54;66.62;99212.16;6241092;23;20039;-81
2023/06/01 10:13:02;;;;;;;26.60;17.40;;;;;;;15.74;67.36;99189.06;6242933;22;20035;-80
2023/06/01 10:15:28;;;;;;;32.60;17.90;;;;;;;16.16;67.15;99204.78;6244950;22;19996;-81
2023/06/01 10:17:53;;;;;;;27.15;18.42;;;;;;;16.29;67.04;99193.44;6241179;23;20138;-81
2023/06/01 10:20:19;;;;;;;25.40;15.00;;;;;;;16.28;67.23;99191.81;6240652;23;20016;-80
2023/06/01 10:22:45;;;;;;;25.85;15.73;;;;;;;16.92;64.76;99191.72;6242629;22;20375;-80
2023/06/01 10:25:15;;;;;;;25.15;15.35;;;;;;;16.98;65.72;99195.97;6241895;23;20004;-82
2023/06/01 10:27:51;;;;;;;19.90;13.07;;;;;;;16.64;65.75;99187.88;6242434;22;20086;-81
2023/06/01 10:30:16;;;;;;;21.05;16.67;;;;;;;16.20;66.90;99182.44;6243186;22;19996;-82
2023/06/01 10:32:48;;;;;;;29.42;16.30;;;;;;;16.47;67.09;99187.38;6215187;23;20016;-82
2023/06/01 10:35:26;;;;;;;28.25;16.85;;;;;;;16.05;68.03;99185.19;6242098;23;20054;-81
2023/06/01 10:38:07;;;;;;;28.30;14.98;;;;;;;16.49;66.49;99187.91;6241553;23;20004;-81
2023/06/01 10:40:36;;;;;;;23.25;16.08;;;;;;;16.45;66.30;99173.38;6243246;22;20027;-81
2023/06/01 10:43:02;;;;;;;25.73;15.77;;;;;;;16.10;68.73;99190.53;6241336;23;20042;-81
2023/06/01 10:45:38;;;;;;;26.27;15.35;;;;;;;16.40;68.27;99179.59;6240462;23;20421;-82
2023/06/01 10:48:05;;;;;;;21.33;15.10;;;;;;;16.83;66.86;99179.91;6243050;22;20332;-82
2023/06/01 10:50:31;;;;;;;24.58;15.50;;;;;;;17.01;66.05;99190.84;6215238;23;20004;-81
2023/06/01 10:53:16;;;;;;;23.25;14.50;;;;;;;17.40;64.58;99187.28;6242728;22;20019;-82
2023/06/01 10:55:42;;;;;;;23.67;15.35;;;;;;;16.90;66.15;99172.31;6241293;23;20000;-82
2023/06/01 10:58:33;;;;;;;24.85;15.40;;;;;;;16.93;65.92;99185.22;6242989;22;20018;-82
2023/06/01 11:00:59;;;;;;;26.95;16.92;;;;;;;16.84;66.45;99186.94;6235179;23;20039;-82
2023/06/01 11:03:58;;;;;;;24.13;17.02;;;;;;;16.45;66.89;99182.28;6215433;23;20018;-81
2023/06/01 11:06:31;;;;;;;25.20;16.13;;;;;;;17.05;66.17;99180.28;6175847;23;20232;-81
2023/06/01 11:09:01;;;;;;;16.60;12.73;;;;;;;17.52;66.26;99175.03;6242901;22;20079;-81
2023/06/01 11:11:52;;;;;;;29.42;15.93;;;;;;;17.40;65.43;99142.19;6240653;23;20083;-81
2023/06/01 11:14:21;;;;;;;23.83;15.55;;;;;;;17.38;63.87;99168.66;6241919;22;20151;-80
2023/06/01 11:16:47;;;;;;;22.35;14.85;;;;;;;16.54;67.52;99170.94;6241519;23;20004;-80
2023/06/01 11:19:21;;;;;;;25.65;16.88;;;;;;;16.78;67.39;99158.38;6242699;22;20079;-81
2023/06/01 11:21:46;;;;;;;22.35;15.20;;;;;;;17.22;65.20;99149.13;6243179;22;20061;-80
2023/06/01 11:24:13;;;;;;;26.77;15.23;;;;;;;16.88;66.67;99161.81;6241115;23;20012;-81